KEGE

Eagle County Regional Airport

Eagle, Colorado, USA
KEGE 241142Z 2412/2512 08004KT P6SM VCSH BKN090 TEMPO 2413/2417 VRB15G25KT -SHRA SCT060 BKN080 FM241700 24010KT P6SM VCSH SCT070 FM241900 26020G30KT P6SM VCSH SCT090 FM250200 25009KT P6SM SCT100 FM250800 10005KT P6SM SKC AMD LTD TO CLD VIS AND WIND TIL 241300
Issued Valid From Valid To
Sep-24 @ 11:42 UTC
(2 hours ago)
Sep-24 @ 12:00 UTC
(2 hours ago)
Sep-25 @ 12:00 UTC
(in 22 hours)
Sep-24 @ 12:00 to Sep-24 @ 17:00
KEGE 241142Z 2412/2512 08004KT P6SM VCSH BKN090
Wind Visibility Clouds
80° at 4 knots Greater than 6 miles
  • Broken at 9,000' AGL
Temporary Sep-24 @ 13:00 to Sep-24 @ 17:00
TEMPO 2413/2417 VRB15G25KT -SHRA SCT060 BKN080
Wind Clouds Conditions
Variable at 15 knots
 Gusting to 25 knots
  • Scattered at 6,000' AGL
  • Broken at 8,000' AGL
  • Light Rain
From Sep-24 @ 17:00 to Sep-24 @ 19:00
FM241700 24010KT P6SM VCSH SCT070
Wind Visibility Clouds
240° at 10 knots Greater than 6 miles
  • Scattered at 7,000' AGL
From Sep-24 @ 19:00 to Sep-25 @ 02:00
FM241900 26020G30KT P6SM VCSH SCT090
Wind Visibility Clouds
260° at 20 knots
 Gusting to 30 knots
Greater than 6 miles
  • Scattered at 9,000' AGL
From Sep-25 @ 02:00 to Sep-25 @ 08:00
FM250200 25009KT P6SM SCT100
Wind Visibility Clouds
250° at 9 knots Greater than 6 miles
  • Scattered at 10,000' AGL
From Sep-25 @ 08:00 to Sep-25 @ 12:00
FM250800 10005KT P6SM SKC AMD LTD TO CLD VIS AND WIND TIL 241300
Wind Visibility Clouds
100° at 5 knots Greater than 6 miles
  • Clear skies
KEGE 241142Z 2412/2512 08004KT P6SM VCSH BKN090 TEMPO 2413/2417 VRB15G25KT -SHRA SCT060 BKN080 FM241700 24010KT P6SM VCSH SCT070 FM241900 26020G30KT P6SM VCSH SCT090 FM250200 25009KT P6SM SCT100 FM250800 10005KT P6SM SKC AMD LTD TO CLD VIS AND WIND TIL 241300
Issued Sep-24 @ 11:42 UTC
(2 hours ago)
Valid From Sep-24 @ 12:00 UTC
(2 hours ago)
Valid To Sep-25 @ 12:00 UTC
(in 22 hours)
Sep-24 @ 12:00 - Sep-24 @ 17:00
Wind Visibility
80° at 4 knots Greater than 6 miles
Clouds
  • Broken at 9,000' AGL
Temporary Sep-24 @ 13:00 - Sep-24 @ 17:00
Wind
Variable at 15 knots
 Gusting to 25 knots
Clouds
  • Scattered at 6,000' AGL
  • Broken at 8,000' AGL
Conditions
  • Light Rain
From Sep-24 @ 17:00 - Sep-24 @ 19:00
Wind Visibility
240° at 10 knots Greater than 6 miles
Clouds
  • Scattered at 7,000' AGL
From Sep-24 @ 19:00 - Sep-25 @ 02:00
Wind Visibility
260° at 20 knots
 Gusting to 30 knots
Greater than 6 miles
Clouds
  • Scattered at 9,000' AGL
From Sep-25 @ 02:00 - Sep-25 @ 08:00
Wind Visibility
250° at 9 knots Greater than 6 miles
Clouds
  • Scattered at 10,000' AGL
From Sep-25 @ 08:00 - Sep-25 @ 12:00
Wind Visibility
100° at 5 knots Greater than 6 miles
Clouds
  • Clear skies